Main page
METAR-TAF:

METAR-TAF

Airports :

Aktion National Airport

Preveza, Greece

latitude: 38-37N, longitude: 020-46E, elevation: 4 m

Current weather observation

The report was made 13 minutes ago, at 18:50 UTC
Wind 4 kt from the West
Temperature 26°C
Humidity 79%
Pressure 1015 hPa
Visibility 10 km or more
no clouds below 1500 m and no cumulonimbus

METAR: LGPZ 241850Z 27004KT CAVOK 26/22 Q1015

Time: 22:03 (19:03 UTC)

Forecast

The report was made 2 hours and 3 minutes ago, at 17:00 UTC
Forecast valid from 24 at 18 UTC to 25 at 18 UTC
Wind 10 kt from the West
Visibility 10 km or more
Few clouds at a height of 2000 ft
Temporary
from 25 at 00 UTC to 25 at 06 UTC
Wind 5 kt from the East

TAF: LGPZ 241700Z 2418/2518 27010KT 9999 FEW020 TEMPO 2500/2506 09005KT

Weather observations and forecasts of more than 4000 airports (METAR and TAF reports).

The available stations are represented by yellow and red dots on the map.

Hover mouse over dot to see the name of the station.

Then click to see weather observations and forecasts.

To change the map : click on the green buttons with a black cross to zoom in, on the green button with a dash to zoom out, or on the green arrows for adjacent maps.


METAR-TAF: